createdAt,value
2022-09-30T00:01:10.597Z,99.05
2022-09-30T00:03:37.190Z,98.93
2022-09-30T00:06:08.759Z,98.57
2022-09-30T00:08:37.168Z,98.14
2022-09-30T00:11:11.209Z,97.80
2022-09-30T00:13:40.124Z,97.90
2022-09-30T00:16:09.055Z,97.25
2022-09-30T00:18:36.753Z,97.24
2022-09-30T00:21:04.312Z,97.02
2022-09-30T00:23:34.443Z,96.86
2022-09-30T00:26:04.293Z,97.09
2022-09-30T00:28:31.109Z,97.57
2022-09-30T00:31:05.379Z,97.68
2022-09-30T00:33:32.234Z,97.73
2022-09-30T00:35:59.058Z,97.50
2022-09-30T00:38:27.766Z,97.18
2022-09-30T00:40:56.304Z,97.40
2022-09-30T00:43:43.979Z,97.32
2022-09-30T00:46:21.156Z,97.29
2022-09-30T00:48:53.900Z,97.27
2022-09-30T00:51:30.609Z,96.93
2022-09-30T00:54:01.951Z,97.28
2022-09-30T00:56:39.478Z,97.50
2022-09-30T00:59:19.793Z,97.80
2022-09-30T01:01:46.425Z,98.23
2022-09-30T01:04:16.043Z,98.24
2022-09-30T01:06:43.318Z,97.88
2022-09-30T01:09:11.584Z,97.71
2022-09-30T01:11:38.346Z,97.53
2022-09-30T01:14:14.520Z,97.41
2022-09-30T01:17:02.844Z,97.12
2022-09-30T01:20:05.844Z,96.91
2022-09-30T01:22:51.685Z,96.65
2022-09-30T01:25:21.027Z,96.43
2022-09-30T01:28:12.142Z,96.41
2022-09-30T01:31:00.511Z,96.39
2022-09-30T01:33:52.909Z,96.65
2022-09-30T01:36:37.844Z,96.98
2022-09-30T01:39:23.164Z,96.24
2022-09-30T01:42:01.745Z,96.15
2022-09-30T01:45:04.260Z,96.19
2022-09-30T01:47:33.209Z,96.31
2022-09-30T01:50:18.205Z,96.06
2022-09-30T01:53:09.593Z,96.38
2022-09-30T01:55:42.917Z,96.90
2022-09-30T01:58:16.121Z,97.01
2022-09-30T02:00:49.233Z,96.67
2022-09-30T02:03:22.354Z,96.84
2022-09-30T02:06:11.835Z,97.25
2022-09-30T02:08:44.253Z,97.58
2022-09-30T02:11:25.915Z,97.60
2022-09-30T02:14:06.031Z,97.71
2022-09-30T02:16:39.938Z,97.60
2022-09-30T02:19:11.318Z,97.50
2022-09-30T02:21:42.434Z,97.50
2022-09-30T02:24:14.743Z,97.04
2022-09-30T02:26:44.224Z,97.34
2022-09-30T02:29:19.559Z,97.61
2022-09-30T02:31:55.891Z,97.98
2022-09-30T02:34:33.890Z,98.49
2022-09-30T02:37:40.526Z,98.48
2022-09-30T02:40:07.379Z,99.03
2022-09-30T02:42:34.431Z,98.67
2022-09-30T02:45:08.648Z,98.80
2022-09-30T02:48:07.673Z,98.88
2022-09-30T02:51:00.610Z,98.93
2022-09-30T02:53:27.049Z,98.79
2022-09-30T02:56:23.531Z,98.67
2022-09-30T02:58:52.835Z,98.67
2022-09-30T03:01:20.074Z,98.65
2022-09-30T03:03:48.862Z,98.70
2022-09-30T03:06:15.701Z,99.00
2022-09-30T03:08:43.699Z,99.09
2022-09-30T03:11:25.098Z,99.23
2022-09-30T03:14:24.206Z,99.22
2022-09-30T03:17:25.884Z,98.68
2022-09-30T03:20:05.894Z,99.06
2022-09-30T03:23:15.143Z,98.81
2022-09-30T03:25:57.139Z,98.64
2022-09-30T03:28:36.294Z,98.53
2022-09-30T03:31:14.245Z,98.98
2022-09-30T03:34:07.206Z,99.18
2022-09-30T03:37:04.317Z,99.46
2022-09-30T03:39:49.262Z,100.00
2022-09-30T03:42:27.098Z,99.83
2022-09-30T03:45:03.997Z,99.64
2022-09-30T03:47:34.013Z,99.23
2022-09-30T03:50:07.141Z,99.70
2022-09-30T03:52:34.867Z,100.00
2022-09-30T03:55:04.423Z,100.00
2022-09-30T03:57:31.004Z,99.83
2022-09-30T03:59:58.133Z,99.67
2022-09-30T04:02:25.510Z,99.56
2022-09-30T04:04:52.093Z,100.00
2022-09-30T04:07:18.949Z,100.00
2022-09-30T04:09:45.514Z,100.00
2022-09-30T04:12:12.046Z,100.00
2022-09-30T04:14:38.510Z,100.00
2022-09-30T04:17:05.773Z,100.00
2022-09-30T04:19:32.313Z,100.00
2022-09-30T04:21:58.980Z,99.97
2022-09-30T04:24:25.525Z,99.80
2022-09-30T04:26:52.067Z,99.51
2022-09-30T04:29:18.620Z,99.19
2022-09-30T04:31:45.296Z,99.03
2022-09-30T04:34:11.919Z,98.98
2022-09-30T04:36:38.706Z,99.98
2022-09-30T04:39:05.628Z,100.00
2022-09-30T04:41:34.037Z,100.00
2022-09-30T04:44:05.994Z,100.00
2022-09-30T04:46:36.599Z,100.00
2022-09-30T04:49:09.107Z,100.00
2022-09-30T04:51:36.465Z,100.00
2022-09-30T04:54:03.565Z,100.00
2022-09-30T04:56:30.195Z,100.00
2022-09-30T04:58:57.392Z,100.00
2022-09-30T05:01:23.993Z,100.00
2022-09-30T05:03:50.772Z,100.00
2022-09-30T05:06:17.794Z,100.00
2022-09-30T05:08:46.113Z,100.00
2022-09-30T05:11:18.860Z,100.00
2022-09-30T05:13:46.129Z,100.00
2022-09-30T05:16:13.533Z,100.00
2022-09-30T05:18:42.682Z,100.00
2022-09-30T05:21:10.133Z,100.00
2022-09-30T05:23:36.897Z,100.00
2022-09-30T05:26:03.564Z,100.00
2022-09-30T05:28:31.383Z,100.00
2022-09-30T05:31:00.043Z,100.00
2022-09-30T05:33:29.411Z,100.00
2022-09-30T05:36:00.009Z,100.00
2022-09-30T05:38:26.683Z,100.00
2022-09-30T05:40:54.393Z,100.00
2022-09-30T05:43:20.952Z,100.00
2022-09-30T05:45:55.328Z,100.00
2022-09-30T05:48:23.379Z,99.85
2022-09-30T05:50:54.678Z,99.33
2022-09-30T05:53:21.150Z,99.36
2022-09-30T05:55:48.685Z,99.31
2022-09-30T05:58:16.570Z,98.86
2022-09-30T06:00:45.131Z,98.70
2022-09-30T06:03:11.837Z,99.19
2022-09-30T06:05:38.344Z,99.53
2022-09-30T06:08:07.133Z,100.00
2022-09-30T06:10:34.812Z,99.81
2022-09-30T06:13:04.727Z,99.46
2022-09-30T06:15:31.568Z,98.87
2022-09-30T06:17:58.368Z,98.71
2022-09-30T06:20:25.178Z,98.89
2022-09-30T06:22:51.652Z,98.44
2022-09-30T06:25:18.287Z,98.57
2022-09-30T06:27:49.978Z,98.86
2022-09-30T06:30:16.866Z,99.10
2022-09-30T06:32:43.956Z,99.06
2022-09-30T06:35:10.903Z,98.68
2022-09-30T06:37:38.648Z,98.67
2022-09-30T06:40:06.424Z,98.70
2022-09-30T06:42:33.877Z,98.82
2022-09-30T06:45:00.341Z,98.59
2022-09-30T06:47:26.930Z,98.84
2022-09-30T06:49:58.425Z,98.88
2022-09-30T06:52:26.347Z,98.87
2022-09-30T06:54:56.544Z,98.62
2022-09-30T06:57:25.100Z,98.20
2022-09-30T06:59:52.139Z,98.21
2022-09-30T07:02:18.833Z,98.54
2022-09-30T07:04:45.360Z,98.74
2022-09-30T07:07:12.195Z,98.37
2022-09-30T07:09:38.816Z,97.98
2022-09-30T07:12:07.354Z,97.93
2022-09-30T07:14:33.865Z,98.06
2022-09-30T07:17:04.107Z,98.21
2022-09-30T07:19:31.418Z,97.85
2022-09-30T07:22:18.202Z,97.53
2022-09-30T07:24:44.613Z,97.52
2022-09-30T07:27:13.685Z,97.59
2022-09-30T07:30:07.169Z,97.45
2022-09-30T07:32:27.965Z,97.22
2022-09-30T07:34:54.490Z,96.22
2022-09-30T07:37:21.654Z,95.71
2022-09-30T07:39:48.566Z,94.73
2022-09-30T07:42:22.640Z,93.65
2022-09-30T07:44:52.979Z,93.15
2022-09-30T07:47:20.480Z,92.12
2022-09-30T07:49:47.363Z,91.26
2022-09-30T07:52:14.325Z,91.48
2022-09-30T07:54:46.628Z,91.17
2022-09-30T07:57:16.367Z,90.55
2022-09-30T07:59:43.041Z,90.59
2022-09-30T08:02:15.674Z,90.51
2022-09-30T08:04:44.173Z,90.23
2022-09-30T08:07:11.787Z,90.33
2022-09-30T08:09:38.545Z,91.46
2022-09-30T08:12:05.433Z,92.91
2022-09-30T08:14:32.126Z,94.48
2022-09-30T08:17:00.253Z,92.80
2022-09-30T08:19:28.850Z,92.02
2022-09-30T08:21:55.610Z,92.13
2022-09-30T08:24:23.957Z,92.12
2022-09-30T08:26:51.240Z,91.09
2022-09-30T08:29:20.388Z,90.64
2022-09-30T08:31:56.695Z,90.31
2022-09-30T08:34:30.466Z,90.31
2022-09-30T08:36:59.669Z,86.72
2022-09-30T08:39:26.419Z,84.90
2022-09-30T08:42:25.468Z,84.04
2022-09-30T08:45:23.258Z,82.97
2022-09-30T08:48:14.583Z,80.88
2022-09-30T08:51:02.050Z,79.23
2022-09-30T08:53:49.292Z,79.14
2022-09-30T08:56:28.154Z,78.47
2022-09-30T08:58:59.447Z,78.57
2022-09-30T09:01:33.951Z,79.46
2022-09-30T09:04:02.514Z,77.20
2022-09-30T09:06:28.953Z,75.81
2022-09-30T09:09:07.397Z,76.38
2022-09-30T09:12:08.405Z,76.70
2022-09-30T09:14:44.072Z,71.46
2022-09-30T09:17:28.913Z,72.78
2022-09-30T09:20:17.388Z,73.18
2022-09-30T09:22:48.680Z,74.62
2022-09-30T09:25:18.079Z,76.40
2022-09-30T09:28:00.596Z,78.60
2022-09-30T09:30:36.223Z,77.99
2022-09-30T09:33:18.659Z,79.31
2022-09-30T09:35:54.234Z,80.92
2022-09-30T09:38:50.173Z,81.85
2022-09-30T09:41:41.225Z,82.79
2022-09-30T09:44:32.248Z,83.00
2022-09-30T09:47:15.170Z,83.90
2022-09-30T09:49:44.659Z,82.86
2022-09-30T09:52:12.191Z,83.28
2022-09-30T09:54:48.214Z,82.07
2022-09-30T09:57:27.746Z,81.62
2022-09-30T10:00:22.592Z,77.85
2022-09-30T10:03:06.503Z,78.40
2022-09-30T10:05:39.633Z,77.82
2022-09-30T10:08:17.338Z,76.00
2022-09-30T10:10:48.225Z,73.53
2022-09-30T10:13:24.530Z,69.60
2022-09-30T10:15:54.965Z,70.02
2022-09-30T10:18:37.493Z,68.61
2022-09-30T10:21:23.002Z,71.28
2022-09-30T10:23:49.650Z,74.05
2022-09-30T10:26:22.480Z,74.05
2022-09-30T10:28:52.862Z,73.89
2022-09-30T10:31:30.139Z,74.28
2022-09-30T10:34:21.753Z,72.84
2022-09-30T10:36:48.959Z,73.93
2022-09-30T10:39:35.786Z,72.34
2022-09-30T10:42:16.570Z,74.47
2022-09-30T10:44:46.673Z,77.66
2022-09-30T10:47:22.712Z,76.46
2022-09-30T10:49:51.507Z,74.07
2022-09-30T10:52:40.461Z,73.55
2022-09-30T10:55:25.321Z,72.41
2022-09-30T10:57:54.677Z,72.02
2022-09-30T11:00:23.790Z,72.02
2022-09-30T11:03:14.677Z,73.99
2022-09-30T11:05:44.098Z,75.13
2022-09-30T11:08:21.026Z,72.95
2022-09-30T11:11:10.335Z,72.21
2022-09-30T11:13:48.487Z,71.74
2022-09-30T11:16:27.270Z,71.04
2022-09-30T11:19:26.996Z,71.17
2022-09-30T11:21:59.360Z,71.03
2022-09-30T11:24:38.757Z,70.67
2022-09-30T11:27:14.271Z,66.89
2022-09-30T11:30:19.828Z,65.66
2022-09-30T11:33:11.105Z,63.83
2022-09-30T11:35:43.620Z,61.59
2022-09-30T11:38:47.786Z,60.76
2022-09-30T11:41:35.836Z,62.11
2022-09-30T11:44:08.318Z,62.11
2022-09-30T11:46:40.478Z,61.23
2022-09-30T11:49:21.172Z,58.21
2022-09-30T11:52:14.078Z,57.92
2022-09-30T11:54:47.322Z,59.23
2022-09-30T11:57:51.890Z,57.05
2022-09-30T12:00:19.973Z,56.77
2022-09-30T12:03:08.014Z,57.11
2022-09-30T12:05:43.808Z,56.11
2022-09-30T12:08:42.302Z,55.45
2022-09-30T12:11:13.717Z,54.00
2022-09-30T12:13:57.292Z,55.51
2022-09-30T12:16:31.945Z,55.11
2022-09-30T12:19:16.215Z,56.45
2022-09-30T12:22:05.501Z,56.54
2022-09-30T12:24:44.886Z,57.29
2022-09-30T12:27:14.381Z,57.32
2022-09-30T12:30:13.258Z,57.47
2022-09-30T12:32:42.825Z,56.96
2022-09-30T12:35:30.969Z,56.06
2022-09-30T12:38:03.513Z,56.35
2022-09-30T12:40:52.347Z,57.89
2022-09-30T12:43:37.506Z,57.60
2022-09-30T12:46:29.146Z,56.55
2022-09-30T12:49:01.522Z,57.59
2022-09-30T12:51:34.175Z,55.95
2022-09-30T12:54:24.519Z,55.68
2022-09-30T12:56:59.273Z,57.12
2022-09-30T12:59:30.088Z,56.95
2022-09-30T13:01:58.902Z,56.99
2022-09-30T13:04:33.148Z,56.13
2022-09-30T13:06:59.584Z,56.94
2022-09-30T13:09:34.947Z,57.74
2022-09-30T13:12:01.449Z,58.32
2022-09-30T13:14:35.990Z,59.11
2022-09-30T13:17:08.792Z,57.65
2022-09-30T13:19:51.293Z,57.28
2022-09-30T13:22:20.809Z,57.93
2022-09-30T13:25:05.380Z,56.16
2022-09-30T13:27:44.642Z,57.44
2022-09-30T13:30:14.674Z,58.10
2022-09-30T13:32:43.368Z,58.47
2022-09-30T13:35:34.695Z,58.49
2022-09-30T13:38:16.795Z,59.32
2022-09-30T13:41:01.354Z,58.93
2022-09-30T13:43:34.069Z,57.88
2022-09-30T13:46:30.686Z,58.90
2022-09-30T13:49:05.176Z,59.18
2022-09-30T13:51:33.265Z,59.43
2022-09-30T13:54:06.917Z,59.60
2022-09-30T13:56:36.673Z,59.84
2022-09-30T13:59:13.407Z,59.97
2022-09-30T14:01:57.892Z,59.49
2022-09-30T14:04:36.266Z,59.28
2022-09-30T14:07:19.012Z,58.36
2022-09-30T14:09:55.653Z,58.33
2022-09-30T14:12:46.710Z,58.97
2022-09-30T14:15:42.534Z,58.94
2022-09-30T14:18:48.668Z,57.68
2022-09-30T14:21:35.558Z,58.13
2022-09-30T14:24:21.684Z,58.33
2022-09-30T14:27:06.782Z,59.40
2022-09-30T14:29:43.401Z,59.30
2022-09-30T14:32:31.506Z,59.91
2022-09-30T14:35:00.564Z,59.43
2022-09-30T14:37:33.261Z,58.77
2022-09-30T14:40:00.046Z,58.51
2022-09-30T14:42:34.921Z,58.29
2022-09-30T14:45:05.742Z,58.36
2022-09-30T14:47:40.506Z,59.17
2022-09-30T14:50:18.325Z,59.12
2022-09-30T14:52:47.353Z,57.67
2022-09-30T14:55:25.269Z,57.47
2022-09-30T14:57:57.984Z,57.41
2022-09-30T15:00:30.994Z,57.59
2022-09-30T15:02:59.492Z,58.42
2022-09-30T15:05:26.792Z,58.66
2022-09-30T15:07:53.757Z,58.71
2022-09-30T15:10:23.326Z,58.36
2022-09-30T15:12:51.803Z,58.17
2022-09-30T15:15:35.161Z,57.59
2022-09-30T15:18:43.022Z,57.81
2022-09-30T15:21:14.565Z,57.76
2022-09-30T15:23:44.784Z,58.49
2022-09-30T15:26:13.281Z,59.49
2022-09-30T15:28:40.541Z,59.64
2022-09-30T15:31:18.409Z,59.78
2022-09-30T15:33:45.724Z,60.38
2022-09-30T15:36:17.215Z,60.50
2022-09-30T15:38:51.751Z,60.80
2022-09-30T15:41:18.568Z,60.02
2022-09-30T15:43:51.053Z,59.83
2022-09-30T15:46:29.515Z,59.92
2022-09-30T15:48:58.911Z,60.50
2022-09-30T15:51:34.744Z,61.37
2022-09-30T15:54:16.347Z,61.58
2022-09-30T15:56:43.507Z,61.38
2022-09-30T15:59:11.809Z,60.91
2022-09-30T16:01:42.686Z,60.01
2022-09-30T16:04:24.409Z,60.65
2022-09-30T16:06:55.034Z,61.16
2022-09-30T16:09:33.675Z,61.13
2022-09-30T16:12:14.970Z,61.35
2022-09-30T16:14:49.332Z,61.38
2022-09-30T16:17:32.393Z,61.95
2022-09-30T16:20:10.979Z,61.89
2022-09-30T16:22:40.545Z,62.90
2022-09-30T16:25:27.876Z,62.76
2022-09-30T16:28:00.905Z,62.72
2022-09-30T16:30:28.835Z,63.09
2022-09-30T16:33:00.639Z,63.30
2022-09-30T16:35:28.470Z,64.47
2022-09-30T16:38:01.259Z,65.58
2022-09-30T16:40:28.914Z,68.15
2022-09-30T16:42:55.910Z,70.06
2022-09-30T16:45:22.967Z,69.64
2022-09-30T16:47:50.486Z,69.29
2022-09-30T16:50:30.372Z,71.33
2022-09-30T16:52:56.919Z,72.40
2022-09-30T16:55:25.422Z,71.80
2022-09-30T16:57:53.123Z,72.23
2022-09-30T17:00:19.739Z,75.25
2022-09-30T17:02:47.705Z,77.75
2022-09-30T17:05:18.550Z,77.90
2022-09-30T17:07:52.882Z,78.78
2022-09-30T17:10:23.647Z,79.51
2022-09-30T17:12:50.645Z,79.86
2022-09-30T17:15:18.772Z,80.24
2022-09-30T17:17:45.804Z,80.70
2022-09-30T17:20:12.599Z,81.45
2022-09-30T17:22:39.357Z,82.43
2022-09-30T17:25:06.585Z,83.60
2022-09-30T17:27:33.427Z,84.63
2022-09-30T17:30:01.230Z,84.86
2022-09-30T17:32:27.790Z,84.62
2022-09-30T17:34:54.240Z,84.94
2022-09-30T17:37:21.114Z,85.21
2022-09-30T17:39:47.619Z,85.58
2022-09-30T17:42:34.205Z,85.65
2022-09-30T17:45:00.662Z,85.71
2022-09-30T17:47:27.160Z,85.86
2022-09-30T17:49:54.105Z,86.23
2022-09-30T17:52:21.249Z,86.44
2022-09-30T17:54:52.304Z,87.02
2022-09-30T17:57:20.329Z,87.19
2022-09-30T17:59:46.839Z,87.60
2022-09-30T18:02:15.975Z,87.88
2022-09-30T18:04:42.488Z,87.76
2022-09-30T18:07:10.164Z,88.39
2022-09-30T18:09:37.920Z,88.13
2022-09-30T18:12:05.098Z,88.03
2022-09-30T18:14:38.120Z,88.54
2022-09-30T18:17:05.769Z,88.43
2022-09-30T18:19:32.994Z,88.81
2022-09-30T18:21:59.430Z,89.01
2022-09-30T18:24:44.852Z,88.90
2022-09-30T18:27:15.101Z,89.15
2022-09-30T18:29:41.784Z,88.87
2022-09-30T18:32:08.856Z,88.83
2022-09-30T18:34:35.412Z,88.43
2022-09-30T18:37:04.093Z,88.42
2022-09-30T18:39:31.261Z,88.06
2022-09-30T18:41:57.762Z,86.97
2022-09-30T18:44:25.625Z,87.03
2022-09-30T18:46:55.441Z,86.43
2022-09-30T18:49:24.836Z,85.43
2022-09-30T18:51:51.301Z,85.41
2022-09-30T18:54:18.076Z,85.73
2022-09-30T18:56:44.715Z,85.92
2022-09-30T18:59:18.169Z,86.26
2022-09-30T19:01:47.849Z,86.44
2022-09-30T19:04:14.587Z,86.36
2022-09-30T19:06:43.597Z,86.11
2022-09-30T19:09:10.332Z,85.42
2022-09-30T19:11:37.107Z,84.62
2022-09-30T19:14:05.624Z,83.40
2022-09-30T19:16:37.914Z,82.53
2022-09-30T19:19:06.369Z,82.15
2022-09-30T19:21:36.860Z,81.98
2022-09-30T19:24:07.954Z,82.67
2022-09-30T19:26:37.080Z,82.54
2022-09-30T19:29:05.433Z,82.33
2022-09-30T19:31:34.108Z,81.81
2022-09-30T19:34:01.938Z,81.81
2022-09-30T19:36:32.701Z,81.31
2022-09-30T19:39:11.247Z,81.40
2022-09-30T19:41:38.864Z,81.19
2022-09-30T19:44:05.366Z,81.50
2022-09-30T19:46:31.859Z,82.53
2022-09-30T19:48:58.374Z,82.24
2022-09-30T19:51:26.382Z,82.14
2022-09-30T19:54:05.055Z,81.83
2022-09-30T19:56:33.779Z,80.75
2022-09-30T19:59:04.002Z,80.56
2022-09-30T20:01:31.248Z,80.92
2022-09-30T20:04:04.677Z,80.64
2022-09-30T20:06:32.652Z,79.59
2022-09-30T20:09:00.999Z,79.18
2022-09-30T20:11:33.346Z,78.87
2022-09-30T20:14:19.521Z,79.02
2022-09-30T20:16:48.343Z,78.80
2022-09-30T20:19:16.218Z,78.79
2022-09-30T20:21:42.914Z,78.59
2022-09-30T20:24:11.384Z,79.10
2022-09-30T20:26:39.037Z,79.07
2022-09-30T20:29:08.731Z,77.97
2022-09-30T20:31:37.121Z,77.78
2022-09-30T20:34:04.202Z,77.57
2022-09-30T20:36:31.974Z,77.37
2022-09-30T20:39:00.583Z,77.17
2022-09-30T20:41:27.628Z,77.00
2022-09-30T20:43:54.188Z,76.59
2022-09-30T20:46:22.494Z,76.63
2022-09-30T20:48:49.899Z,76.88
2022-09-30T20:51:20.563Z,76.49
2022-09-30T20:53:51.973Z,76.05
2022-09-30T20:56:21.463Z,75.47
2022-09-30T20:58:49.462Z,75.45
2022-09-30T21:01:18.412Z,75.77
2022-09-30T21:03:52.494Z,75.62
2022-09-30T21:06:21.298Z,75.61
2022-09-30T21:08:48.879Z,75.68
2022-09-30T21:11:15.471Z,75.79
2022-09-30T21:13:43.172Z,75.62
2022-09-30T21:16:12.273Z,75.72
2022-09-30T21:18:38.864Z,75.55
2022-09-30T21:21:05.788Z,75.52
2022-09-30T21:23:37.562Z,75.41
2022-09-30T21:26:06.816Z,75.19
2022-09-30T21:28:33.885Z,75.75
2022-09-30T21:31:05.358Z,75.09
2022-09-30T21:33:31.856Z,74.72
2022-09-30T21:36:00.186Z,74.10
2022-09-30T21:38:26.808Z,74.39
2022-09-30T21:41:01.382Z,74.69
2022-09-30T21:43:31.893Z,74.62
2022-09-30T21:46:00.366Z,74.72
2022-09-30T21:48:27.771Z,74.52
2022-09-30T21:50:55.314Z,74.67
2022-09-30T21:53:27.302Z,74.19
2022-09-30T21:55:54.525Z,74.05
2022-09-30T21:58:23.853Z,73.93
2022-09-30T22:00:50.698Z,73.98
2022-09-30T22:03:17.610Z,73.89
2022-09-30T22:05:51.000Z,73.81
2022-09-30T22:08:17.716Z,73.83
2022-09-30T22:10:44.468Z,73.79
2022-09-30T22:13:11.902Z,74.31
2022-09-30T22:15:38.831Z,73.83
2022-09-30T22:18:08.246Z,73.56
2022-09-30T22:20:38.083Z,73.32
2022-09-30T22:23:04.599Z,73.56
2022-09-30T22:25:32.602Z,74.12
2022-09-30T22:27:59.466Z,74.51
2022-09-30T22:30:28.845Z,74.78
2022-09-30T22:33:13.654Z,74.63
2022-09-30T22:35:58.843Z,74.53
2022-09-30T22:38:25.753Z,74.83
2022-09-30T22:40:55.774Z,74.45
2022-09-30T22:43:26.535Z,74.78
2022-09-30T22:46:04.595Z,74.67
2022-09-30T22:48:31.874Z,74.89
2022-09-30T22:50:59.156Z,75.32
2022-09-30T22:53:26.916Z,75.72
2022-09-30T22:55:53.912Z,75.22
2022-09-30T22:58:21.213Z,75.49
2022-09-30T23:00:58.832Z,75.58
2022-09-30T23:03:25.898Z,76.21
2022-09-30T23:05:59.042Z,76.18
2022-09-30T23:08:34.276Z,76.60
2022-09-30T23:11:00.905Z,76.95
2022-09-30T23:13:30.663Z,77.51
2022-09-30T23:15:58.435Z,77.46
2022-09-30T23:18:26.370Z,77.65
2022-09-30T23:21:01.347Z,77.96
2022-09-30T23:23:31.795Z,78.15
2022-09-30T23:26:06.152Z,78.10
2022-09-30T23:28:32.713Z,78.08
2022-09-30T23:31:06.450Z,77.96
2022-09-30T23:33:33.104Z,77.81
2022-09-30T23:36:02.368Z,78.04
2022-09-30T23:38:29.579Z,77.99
2022-09-30T23:40:59.177Z,78.13
2022-09-30T23:43:34.085Z,78.29
2022-09-30T23:46:01.603Z,78.33
2022-09-30T23:48:28.471Z,78.38
2022-09-30T23:50:55.033Z,78.28
2022-09-30T23:53:25.445Z,78.07
2022-09-30T23:56:02.133Z,78.46
2022-09-30T23:58:29.445Z,78.48
